sensor_id;sensor_type;location;lat;lon;timestamp;pressure;altitude;pressure_sealevel;temperature;humidity
76406;BME280;65234;50.044;19.258;2023-03-20T00:01:01;98727.00;;;5.31;82.96
76406;BME280;65234;50.044;19.258;2023-03-20T00:03:29;98726.56;;;5.29;84.24
76406;BME280;65234;50.044;19.258;2023-03-20T00:05:54;98727.34;;;5.30;84.48
76406;BME280;65234;50.044;19.258;2023-03-20T00:08:20;98728.94;;;5.31;83.91
76406;BME280;65234;50.044;19.258;2023-03-20T00:10:46;98728.09;;;5.27;82.75
76406;BME280;65234;50.044;19.258;2023-03-20T00:13:14;98724.84;;;5.21;82.56
76406;BME280;65234;50.044;19.258;2023-03-20T00:15:44;98724.06;;;5.20;82.89
76406;BME280;65234;50.044;19.258;2023-03-20T00:18:15;98726.34;;;5.18;84.17
76406;BME280;65234;50.044;19.258;2023-03-20T00:20:43;98731.44;;;5.16;82.15
76406;BME280;65234;50.044;19.258;2023-03-20T00:23:08;98729.84;;;5.15;83.23
76406;BME280;65234;50.044;19.258;2023-03-20T00:25:34;98724.22;;;5.08;83.08
76406;BME280;65234;50.044;19.258;2023-03-20T00:28:22;98722.63;;;5.07;82.85
76406;BME280;65234;50.044;19.258;2023-03-20T00:30:48;98728.84;;;5.04;84.35
76406;BME280;65234;50.044;19.258;2023-03-20T00:33:13;98723.28;;;5.01;87.42
76406;BME280;65234;50.044;19.258;2023-03-20T00:35:39;98725.16;;;4.97;85.15
76406;BME280;65234;50.044;19.258;2023-03-20T00:38:07;98715.66;;;4.94;85.16
76406;BME280;65234;50.044;19.258;2023-03-20T00:40:33;98723.91;;;4.94;88.54
76406;BME280;65234;50.044;19.258;2023-03-20T00:43:00;98728.53;;;4.90;90.69
76406;BME280;65234;50.044;19.258;2023-03-20T00:45:27;98718.66;;;4.86;89.77
76406;BME280;65234;50.044;19.258;2023-03-20T00:47:54;98718.22;;;4.84;88.98
76406;BME280;65234;50.044;19.258;2023-03-20T00:50:22;98715.03;;;4.82;90.37
76406;BME280;65234;50.044;19.258;2023-03-20T00:52:48;98708.25;;;4.75;90.72
76406;BME280;65234;50.044;19.258;2023-03-20T00:55:17;98714.66;;;4.83;91.53
76406;BME280;65234;50.044;19.258;2023-03-20T00:57:45;98709.91;;;4.80;91.68
76406;BME280;65234;50.044;19.258;2023-03-20T01:00:22;98707.16;;;4.80;89.87
76406;BME280;65234;50.044;19.258;2023-03-20T01:02:50;98711.44;;;4.78;89.07
76406;BME280;65234;50.044;19.258;2023-03-20T01:05:16;98711.06;;;4.79;88.25
76406;BME280;65234;50.044;19.258;2023-03-20T01:07:42;98712.31;;;4.82;90.61
76406;BME280;65234;50.044;19.258;2023-03-20T01:10:09;98714.59;;;4.80;88.53
76406;BME280;65234;50.044;19.258;2023-03-20T01:12:37;98705.16;;;4.77;91.87
76406;BME280;65234;50.044;19.258;2023-03-20T01:15:03;98708.16;;;4.72;89.87
76406;BME280;65234;50.044;19.258;2023-03-20T01:17:35;98707.81;;;4.73;91.47
76406;BME280;65234;50.044;19.258;2023-03-20T01:20:01;98704.69;;;4.75;90.91
76406;BME280;65234;50.044;19.258;2023-03-20T01:22:26;98709.03;;;4.76;90.72
76406;BME280;65234;50.044;19.258;2023-03-20T01:24:52;98705.44;;;4.72;91.76
76406;BME280;65234;50.044;19.258;2023-03-20T01:27:19;98704.56;;;4.68;90.82
76406;BME280;65234;50.044;19.258;2023-03-20T01:29:46;98708.03;;;4.65;92.17
76406;BME280;65234;50.044;19.258;2023-03-20T01:32:14;98712.19;;;4.59;92.92
76406;BME280;65234;50.044;19.258;2023-03-20T01:34:41;98707.09;;;4.57;92.35
76406;BME280;65234;50.044;19.258;2023-03-20T01:37:09;98708.66;;;4.58;91.85
76406;BME280;65234;50.044;19.258;2023-03-20T01:39:36;98708.66;;;4.58;92.11
76406;BME280;65234;50.044;19.258;2023-03-20T01:42:04;98705.84;;;4.55;90.40
76406;BME280;65234;50.044;19.258;2023-03-20T01:44:32;98714.50;;;4.57;91.90
76406;BME280;65234;50.044;19.258;2023-03-20T01:47:00;98716.09;;;4.58;92.40
76406;BME280;65234;50.044;19.258;2023-03-20T01:52:26;98712.75;;;4.49;91.29
76406;BME280;65234;50.044;19.258;2023-03-20T01:54:52;98711.63;;;4.50;90.07
76406;BME280;65234;50.044;19.258;2023-03-20T01:57:20;98712.13;;;4.55;92.09
76406;BME280;65234;50.044;19.258;2023-03-20T01:59:50;98714.84;;;4.55;92.59
76406;BME280;65234;50.044;19.258;2023-03-20T02:02:21;98717.25;;;4.57;93.34
76406;BME280;65234;50.044;19.258;2023-03-20T02:04:49;98719.53;;;4.55;91.80
76406;BME280;65234;50.044;19.258;2023-03-20T02:07:17;98718.47;;;4.59;92.20
76406;BME280;65234;50.044;19.258;2023-03-20T02:09:46;98719.72;;;4.62;92.33
76406;BME280;65234;50.044;19.258;2023-03-20T02:12:12;98718.13;;;4.61;92.17
76406;BME280;65234;50.044;19.258;2023-03-20T02:14:38;98714.50;;;4.57;91.94
76406;BME280;65234;50.044;19.258;2023-03-20T02:17:05;98715.66;;;4.56;91.92
76406;BME280;65234;50.044;19.258;2023-03-20T02:19:50;98716.47;;;4.56;91.60
76406;BME280;65234;50.044;19.258;2023-03-20T02:22:29;98716.09;;;4.58;92.24
76406;BME280;65234;50.044;19.258;2023-03-20T02:28:33;98713.38;;;4.58;92.81
76406;BME280;65234;50.044;19.258;2023-03-20T02:31:18;98708.94;;;4.53;91.64
76406;BME280;65234;50.044;19.258;2023-03-20T02:34:11;98710.53;;;4.54;91.06
76406;BME280;65234;50.044;19.258;2023-03-20T02:39:56;98703.09;;;4.55;92.06
76406;BME280;65234;50.044;19.258;2023-03-20T02:42:30;98705.41;;;4.53;92.00
76406;BME280;65234;50.044;19.258;2023-03-20T02:45:05;98707.69;;;4.51;92.20
76406;BME280;65234;50.044;19.258;2023-03-20T02:47:40;98705.91;;;4.58;92.42
76406;BME280;65234;50.044;19.258;2023-03-20T02:50:16;98709.09;;;4.60;93.20
76406;BME280;65234;50.044;19.258;2023-03-20T02:52:48;98704.75;;;4.59;94.98
76406;BME280;65234;50.044;19.258;2023-03-20T02:55:20;98707.00;;;4.54;94.42
76406;BME280;65234;50.044;19.258;2023-03-20T02:57:56;98704.25;;;4.54;93.71
76406;BME280;65234;50.044;19.258;2023-03-20T03:00:27;98693.78;;;4.59;95.20
76406;BME280;65234;50.044;19.258;2023-03-20T03:02:59;98706.63;;;4.55;94.71
76406;BME280;65234;50.044;19.258;2023-03-20T03:05:30;98704.69;;;4.56;95.73
76406;BME280;65234;50.044;19.258;2023-03-20T03:07:58;98703.00;;;4.51;93.49
76406;BME280;65234;50.044;19.258;2023-03-20T03:10:29;98701.06;;;4.52;92.79
76406;BME280;65234;50.044;19.258;2023-03-20T03:12:59;98696.72;;;4.51;94.36
76406;BME280;65234;50.044;19.258;2023-03-20T03:15:28;98691.16;;;4.47;94.04
76406;BME280;65234;50.044;19.258;2023-03-20T03:17:57;98696.66;;;4.47;92.53
76406;BME280;65234;50.044;19.258;2023-03-20T03:20:26;98701.34;;;4.47;93.74
76406;BME280;65234;50.044;19.258;2023-03-20T03:22:53;98709.88;;;4.42;95.19
76406;BME280;65234;50.044;19.258;2023-03-20T03:25:22;98709.00;;;4.38;95.83
76406;BME280;65234;50.044;19.258;2023-03-20T03:27:53;98703.38;;;4.31;96.70
76406;BME280;65234;50.044;19.258;2023-03-20T03:30:24;98709.84;;;4.22;96.82
76406;BME280;65234;50.044;19.258;2023-03-20T03:33:05;98696.13;;;4.22;97.36
76406;BME280;65234;50.044;19.258;2023-03-20T03:35:32;98710.81;;;4.14;95.56
76406;BME280;65234;50.044;19.258;2023-03-20T03:38:00;98692.63;;;4.06;96.41
76406;BME280;65234;50.044;19.258;2023-03-20T03:40:32;98701.81;;;3.98;97.27
76406;BME280;65234;50.044;19.258;2023-03-20T03:43:04;98705.25;;;3.95;97.84
76406;BME280;65234;50.044;19.258;2023-03-20T03:45:35;98707.91;;;3.92;97.63
76406;BME280;65234;50.044;19.258;2023-03-20T03:48:06;98709.69;;;3.84;97.95
76406;BME280;65234;50.044;19.258;2023-03-20T03:50:36;98707.41;;;3.86;97.78
76406;BME280;65234;50.044;19.258;2023-03-20T03:53:08;98702.97;;;3.82;97.95
76406;BME280;65234;50.044;19.258;2023-03-20T03:55:38;98702.44;;;3.76;97.53
76406;BME280;65234;50.044;19.258;2023-03-20T03:58:09;98710.84;;;3.67;97.53
76406;BME280;65234;50.044;19.258;2023-03-20T04:00:36;98712.34;;;3.65;99.06
76406;BME280;65234;50.044;19.258;2023-03-20T04:03:06;98708.00;;;3.64;100.00
76406;BME280;65234;50.044;19.258;2023-03-20T04:05:35;98712.25;;;3.61;100.00
76406;BME280;65234;50.044;19.258;2023-03-20T04:08:04;98712.50;;;3.56;98.73
76406;BME280;65234;50.044;19.258;2023-03-20T04:10:30;98704.22;;;3.53;98.99
76406;BME280;65234;50.044;19.258;2023-03-20T04:12:56;98711.84;;;3.59;98.22
76406;BME280;65234;50.044;19.258;2023-03-20T04:15:23;98715.78;;;3.62;99.93
76406;BME280;65234;50.044;19.258;2023-03-20T04:17:48;98715.09;;;3.65;99.13
76406;BME280;65234;50.044;19.258;2023-03-20T04:20:14;98709.59;;;3.65;98.53
76406;BME280;65234;50.044;19.258;2023-03-20T04:22:40;98708.47;;;3.66;99.52
76406;BME280;65234;50.044;19.258;2023-03-20T04:25:08;98708.72;;;3.61;99.41
76406;BME280;65234;50.044;19.258;2023-03-20T04:27:34;98718.06;;;3.60;100.00
76406;BME280;65234;50.044;19.258;2023-03-20T04:30:00;98718.06;;;3.60;99.62
76406;BME280;65234;50.044;19.258;2023-03-20T04:32:27;98708.72;;;3.61;100.00
76406;BME280;65234;50.044;19.258;2023-03-20T04:34:53;98705.66;;;3.62;100.00
76406;BME280;65234;50.044;19.258;2023-03-20T04:37:18;98707.59;;;3.62;100.00
76406;BME280;65234;50.044;19.258;2023-03-20T04:39:44;98711.91;;;3.63;100.00
76406;BME280;65234;50.044;19.258;2023-03-20T04:42:10;98713.78;;;3.59;98.71
76406;BME280;65234;50.044;19.258;2023-03-20T04:44:36;98706.16;;;3.52;99.70
76406;BME280;65234;50.044;19.258;2023-03-20T04:47:01;98712.44;;;3.53;100.00
76406;BME280;65234;50.044;19.258;2023-03-20T04:49:28;98718.38;;;3.55;100.00
76406;BME280;65234;50.044;19.258;2023-03-20T04:51:54;98706.94;;;3.53;100.00
76406;BME280;65234;50.044;19.258;2023-03-20T04:54:20;98711.63;;;3.52;100.00
76406;BME280;65234;50.044;19.258;2023-03-20T04:56:46;98702.97;;;3.50;100.00
76406;BME280;65234;50.044;19.258;2023-03-20T04:59:12;98722.00;;;3.59;100.00
76406;BME280;65234;50.044;19.258;2023-03-20T05:01:38;98721.63;;;3.60;100.00
76406;BME280;65234;50.044;19.258;2023-03-20T05:04:04;98727.47;;;3.59;100.00
76406;BME280;65234;50.044;19.258;2023-03-20T05:06:31;98724.28;;;3.57;100.00
76406;BME280;65234;50.044;19.258;2023-03-20T05:08:57;98721.78;;;3.52;100.00
76406;BME280;65234;50.044;19.258;2023-03-20T05:11:23;98728.59;;;3.58;100.00
76406;BME280;65234;50.044;19.258;2023-03-20T05:13:49;98730.63;;;3.61;100.00
76406;BME280;65234;50.044;19.258;2023-03-20T05:16:15;98732.94;;;3.59;98.65
76406;BME280;65234;50.044;19.258;2023-03-20T05:18:41;98734.50;;;3.60;100.00
76406;BME280;65234;50.044;19.258;2023-03-20T05:21:07;98727.63;;;3.66;100.00
76406;BME280;65234;50.044;19.258;2023-03-20T05:23:35;98722.16;;;3.66;100.00
76406;BME280;65234;50.044;19.258;2023-03-20T05:26:00;98730.81;;;3.68;100.00
76406;BME280;65234;50.044;19.258;2023-03-20T05:28:26;98738.34;;;3.71;100.00
76406;BME280;65234;50.044;19.258;2023-03-20T05:30:52;98731.00;;;3.75;100.00
76406;BME280;65234;50.044;19.258;2023-03-20T05:33:18;98738.06;;;3.76;99.71
76406;BME280;65234;50.044;19.258;2023-03-20T05:35:43;98734.72;;;3.83;99.95
76406;BME280;65234;50.044;19.258;2023-03-20T05:38:09;98744.16;;;3.85;99.77
76406;BME280;65234;50.044;19.258;2023-03-20T05:40:36;98743.91;;;3.90;98.98
76406;BME280;65234;50.044;19.258;2023-03-20T05:43:02;98738.84;;;3.92;97.97
76406;BME280;65234;50.044;19.258;2023-03-20T05:45:28;98738.50;;;3.94;99.07
76406;BME280;65234;50.044;19.258;2023-03-20T05:47:54;98734.41;;;4.03;99.42
76406;BME280;65234;50.044;19.258;2023-03-20T05:50:19;98745.19;;;4.12;98.84
76406;BME280;65234;50.044;19.258;2023-03-20T05:52:45;98745.03;;;4.20;99.72
76406;BME280;65234;50.044;19.258;2023-03-20T05:55:11;98743.63;;;4.26;98.89
76406;BME280;65234;50.044;19.258;2023-03-20T05:57:39;98737.03;;;4.31;99.96
76406;BME280;65234;50.044;19.258;2023-03-20T06:00:09;98751.97;;;4.49;99.93
76406;BME280;65234;50.044;19.258;2023-03-20T06:02:35;98750.31;;;4.64;99.62
76406;BME280;65234;50.044;19.258;2023-03-20T06:05:01;98752.66;;;4.81;99.63
76406;BME280;65234;50.044;19.258;2023-03-20T06:07:27;98751.88;;;5.00;99.26
76406;BME280;65234;50.044;19.258;2023-03-20T06:09:53;98757.63;;;5.14;97.21
76406;BME280;65234;50.044;19.258;2023-03-20T06:12:19;98755.69;;;5.34;96.61
76406;BME280;65234;50.044;19.258;2023-03-20T06:14:46;98762.31;;;5.52;94.83
76406;BME280;65234;50.044;19.258;2023-03-20T06:17:11;98757.81;;;5.63;92.41
76406;BME280;65234;50.044;19.258;2023-03-20T06:19:37;98765.44;;;5.73;93.03
76406;BME280;65234;50.044;19.258;2023-03-20T06:22:03;98773.09;;;5.83;91.73
76406;BME280;65234;50.044;19.258;2023-03-20T06:24:29;98769.75;;;5.93;90.22
76406;BME280;65234;50.044;19.258;2023-03-20T06:26:54;98776.66;;;6.06;88.23
76406;BME280;65234;50.044;19.258;2023-03-20T06:29:20;98774.81;;;6.14;88.02
76406;BME280;65234;50.044;19.258;2023-03-20T06:31:47;98783.69;;;6.27;86.33
76406;BME280;65234;50.044;19.258;2023-03-20T06:34:13;98772.28;;;6.28;86.80
76406;BME280;65234;50.044;19.258;2023-03-20T06:36:39;98776.03;;;6.39;86.33
76406;BME280;65234;50.044;19.258;2023-03-20T06:39:05;98779.22;;;6.45;86.80
76406;BME280;65234;50.044;19.258;2023-03-20T06:41:30;98778.97;;;6.53;86.52
76406;BME280;65234;50.044;19.258;2023-03-20T06:43:56;98781.03;;;6.60;86.57
76406;BME280;65234;50.044;19.258;2023-03-20T06:46:22;98782.78;;;6.72;85.94
76406;BME280;65234;50.044;19.258;2023-03-20T06:48:49;98765.06;;;6.69;85.09
76406;BME280;65234;50.044;19.258;2023-03-20T06:51:14;98780.88;;;6.76;85.17
76406;BME280;65234;50.044;19.258;2023-03-20T06:53:40;98777.00;;;6.80;83.38
76406;BME280;65234;50.044;19.258;2023-03-20T06:56:07;98773.19;;;6.88;82.86
76406;BME280;65234;50.044;19.258;2023-03-20T06:58:33;98774.09;;;6.99;82.32
76406;BME280;65234;50.044;19.258;2023-03-20T07:00:59;98778.19;;;7.09;82.62
76406;BME280;65234;50.044;19.258;2023-03-20T07:03:24;98786.91;;;7.15;82.45
76406;BME280;65234;50.044;19.258;2023-03-20T07:05:52;98783.50;;;7.25;82.67
76406;BME280;65234;50.044;19.258;2023-03-20T07:08:17;98783.97;;;7.30;80.93
76406;BME280;65234;50.044;19.258;2023-03-20T07:10:43;98792.00;;;7.42;79.65
76406;BME280;65234;50.044;19.258;2023-03-20T07:13:09;98802.69;;;7.51;79.20
76406;BME280;65234;50.044;19.258;2023-03-20T07:15:34;98799.56;;;7.52;78.65
76406;BME280;65234;50.044;19.258;2023-03-20T07:18:00;98801.56;;;7.55;79.46
76406;BME280;65234;50.044;19.258;2023-03-20T07:20:26;98796.88;;;7.59;80.42
76406;BME280;65234;50.044;19.258;2023-03-20T07:22:53;98800.19;;;7.72;79.58
76406;BME280;65234;50.044;19.258;2023-03-20T07:25:19;98806.59;;;7.83;77.75
76406;BME280;65234;50.044;19.258;2023-03-20T07:27:45;98807.13;;;7.96;77.06
76406;BME280;65234;50.044;19.258;2023-03-20T07:30:11;98797.75;;;8.04;77.05
76406;BME280;65234;50.044;19.258;2023-03-20T07:32:38;98800.19;;;8.13;77.22
76406;BME280;65234;50.044;19.258;2023-03-20T07:35:04;98808.63;;;8.30;77.79
76406;BME280;65234;50.044;19.258;2023-03-20T07:37:34;98806.44;;;8.50;76.80
76406;BME280;65234;50.044;19.258;2023-03-20T07:40:02;98800.25;;;8.64;77.41
76406;BME280;65234;50.044;19.258;2023-03-20T07:42:27;98798.69;;;8.70;77.03
76406;BME280;65234;50.044;19.258;2023-03-20T07:44:53;98801.91;;;8.75;75.69
76406;BME280;65234;50.044;19.258;2023-03-20T07:47:19;98805.06;;;8.77;75.23
76406;BME280;65234;50.044;19.258;2023-03-20T07:49:45;98805.88;;;8.81;75.62
76406;BME280;65234;50.044;19.258;2023-03-20T07:52:10;98804.00;;;8.92;75.69
76406;BME280;65234;50.044;19.258;2023-03-20T07:54:36;98805.22;;;9.02;74.87
76406;BME280;65234;50.044;19.258;2023-03-20T07:57:03;98810.41;;;9.11;75.92
76406;BME280;65234;50.044;19.258;2023-03-20T07:59:29;98820.66;;;9.14;75.00
76406;BME280;65234;50.044;19.258;2023-03-20T08:01:55;98815.16;;;9.21;75.38
76406;BME280;65234;50.044;19.258;2023-03-20T08:04:21;98819.16;;;9.27;75.32
76406;BME280;65234;50.044;19.258;2023-03-20T08:06:46;98811.69;;;9.31;75.30
76406;BME280;65234;50.044;19.258;2023-03-20T08:09:12;98812.88;;;9.37;75.97
76406;BME280;65234;50.044;19.258;2023-03-20T08:11:38;98817.28;;;9.48;75.44
76406;BME280;65234;50.044;19.258;2023-03-20T08:14:05;98816.09;;;9.50;75.72
76406;BME280;65234;50.044;19.258;2023-03-20T08:16:31;98812.97;;;9.58;75.78
76406;BME280;65234;50.044;19.258;2023-03-20T08:18:56;98813.78;;;9.69;76.14
76406;BME280;65234;50.044;19.258;2023-03-20T08:21:22;98809.47;;;9.75;75.86
76406;BME280;65234;50.044;19.258;2023-03-20T08:23:48;98816.97;;;9.71;75.53
76406;BME280;65234;50.044;19.258;2023-03-20T08:26:13;98815.78;;;9.69;75.56
76406;BME280;65234;50.044;19.258;2023-03-20T08:28:39;98817.34;;;9.70;76.57
76406;BME280;65234;50.044;19.258;2023-03-20T08:31:08;98809.06;;;9.70;76.61
76406;BME280;65234;50.044;19.258;2023-03-20T08:33:34;98819.78;;;9.82;76.98
76406;BME280;65234;50.044;19.258;2023-03-20T08:36:00;98822.56;;;10.00;76.55
76406;BME280;65234;50.044;19.258;2023-03-20T08:38:26;98816.69;;;10.15;75.37
76406;BME280;65234;50.044;19.258;2023-03-20T08:40:51;98817.50;;;10.23;75.38
76406;BME280;65234;50.044;19.258;2023-03-20T08:43:17;98814.34;;;10.31;76.33
76406;BME280;65234;50.044;19.258;2023-03-20T08:45:43;98819.09;;;10.45;76.42
76406;BME280;65234;50.044;19.258;2023-03-20T08:48:11;98816.72;;;10.40;76.17
76406;BME280;65234;50.044;19.258;2023-03-20T08:50:36;98806.81;;;10.39;77.85
76406;BME280;65234;50.044;19.258;2023-03-20T08:53:02;98812.75;;;10.41;78.17
76406;BME280;65234;50.044;19.258;2023-03-20T08:55:28;98811.97;;;10.40;78.59
76406;BME280;65234;50.044;19.258;2023-03-20T08:57:53;98810.78;;;10.52;79.79
76406;BME280;65234;50.044;19.258;2023-03-20T09:00:19;98811.56;;;10.60;79.80
76406;BME280;65234;50.044;19.258;2023-03-20T09:02:46;98808.41;;;10.58;80.58
76406;BME280;65234;50.044;19.258;2023-03-20T09:05:12;98816.72;;;10.61;80.18
76406;BME280;65234;50.044;19.258;2023-03-20T09:07:38;98808.41;;;10.65;80.38
76406;BME280;65234;50.044;19.258;2023-03-20T09:10:05;98817.13;;;10.70;81.10
76406;BME280;65234;50.044;19.258;2023-03-20T09:12:31;98815.91;;;10.68;80.61
76406;BME280;65234;50.044;19.258;2023-03-20T09:14:57;98819.47;;;10.68;80.70
76406;BME280;65234;50.044;19.258;2023-03-20T09:17:23;98817.50;;;10.79;81.17
76406;BME280;65234;50.044;19.258;2023-03-20T09:19:49;98818.69;;;10.71;81.51
76406;BME280;65234;50.044;19.258;2023-03-20T09:22:16;98828.59;;;10.65;82.54
76406;BME280;65234;50.044;19.258;2023-03-20T09:24:42;98823.03;;;10.72;83.80
76406;BME280;65234;50.044;19.258;2023-03-20T09:27:11;98820.66;;;10.67;83.68
76406;BME280;65234;50.044;19.258;2023-03-20T09:29:37;98815.13;;;10.71;84.70
76406;BME280;65234;50.044;19.258;2023-03-20T09:32:03;98808.00;;;10.73;84.30
76406;BME280;65234;50.044;19.258;2023-03-20T09:34:28;98814.31;;;10.92;85.34
76406;BME280;65234;50.044;19.258;2023-03-20T09:36:54;98808.75;;;11.09;85.64
76406;BME280;65234;50.044;19.258;2023-03-20T09:39:21;98810.28;;;11.21;84.31
76406;BME280;65234;50.044;19.258;2023-03-20T09:41:48;98809.06;;;11.29;84.33
76406;BME280;65234;50.044;19.258;2023-03-20T09:44:17;98807.81;;;11.44;84.43
76406;BME280;65234;50.044;19.258;2023-03-20T09:47:05;98805.50;;;11.28;85.18
76406;BME280;65234;50.044;19.258;2023-03-20T09:49:34;98806.66;;;11.38;86.79
76406;BME280;65234;50.044;19.258;2023-03-20T09:52:15;98808.63;;;11.34;87.04
76406;BME280;65234;50.044;19.258;2023-03-20T09:54:46;98810.25;;;11.28;87.72
76406;BME280;65234;50.044;19.258;2023-03-20T09:57:19;98811.81;;;11.36;87.99
76406;BME280;65234;50.044;19.258;2023-03-20T09:59:46;98818.19;;;11.33;87.41
76406;BME280;65234;50.044;19.258;2023-03-20T10:02:14;98816.97;;;11.30;88.04
76406;BME280;65234;50.044;19.258;2023-03-20T10:04:42;98814.19;;;11.41;89.13
76406;BME280;65234;50.044;19.258;2023-03-20T10:07:13;98811.00;;;11.43;89.87
76406;BME280;65234;50.044;19.258;2023-03-20T10:09:41;98812.59;;;11.40;90.69
76406;BME280;65234;50.044;19.258;2023-03-20T10:12:20;98813.41;;;11.30;92.01
76406;BME280;65234;50.044;19.258;2023-03-20T10:14:53;98804.00;;;11.10;92.98
76406;BME280;65234;50.044;19.258;2023-03-20T10:17:40;98803.59;;;11.01;94.92
76406;BME280;65234;50.044;19.258;2023-03-20T10:20:11;98813.06;;;11.10;95.78
76406;BME280;65234;50.044;19.258;2023-03-20T10:22:41;98815.06;;;11.10;98.29
76406;BME280;65234;50.044;19.258;2023-03-20T10:25:21;98800.81;;;11.04;100.00
76406;BME280;65234;50.044;19.258;2023-03-20T10:27:52;98796.88;;;11.02;100.00
76406;BME280;65234;50.044;19.258;2023-03-20T10:30:28;98805.97;;;11.09;100.00
76406;BME280;65234;50.044;19.258;2023-03-20T10:33:07;98801.59;;;11.15;100.00
76406;BME280;65234;50.044;19.258;2023-03-20T10:35:38;98802.78;;;11.07;99.65
76406;BME280;65234;50.044;19.258;2023-03-20T10:38:16;98803.22;;;11.06;99.88
76406;BME280;65234;50.044;19.258;2023-03-20T10:40:45;98803.97;;;11.13;99.89
76406;BME280;65234;50.044;19.258;2023-03-20T10:43:18;98805.19;;;11.05;98.51
76406;BME280;65234;50.044;19.258;2023-03-20T10:45:46;98807.97;;;11.02;98.82
76406;BME280;65234;50.044;19.258;2023-03-20T10:48:21;98807.09;;;11.22;99.28
76406;BME280;65234;50.044;19.258;2023-03-20T10:50:52;98801.47;;;11.44;98.12
76406;BME280;65234;50.044;19.258;2023-03-20T10:53:23;98792.69;;;11.59;96.72
76406;BME280;65234;50.044;19.258;2023-03-20T10:55:53;98791.81;;;11.84;95.75
76406;BME280;65234;50.044;19.258;2023-03-20T10:58:22;98791.69;;;12.01;94.69
76406;BME280;65234;50.044;19.258;2023-03-20T11:00:48;98785.28;;;12.11;93.07
76406;BME280;65234;50.044;19.258;2023-03-20T11:03:21;98784.44;;;12.18;92.38
76406;BME280;65234;50.044;19.258;2023-03-20T11:05:50;98779.56;;;12.36;92.42
76406;BME280;65234;50.044;19.258;2023-03-20T11:08:21;98784.28;;;12.39;91.41
76406;BME280;65234;50.044;19.258;2023-03-20T11:10:57;98778.00;;;12.32;91.04
76406;BME280;65234;50.044;19.258;2023-03-20T11:13:26;98784.31;;;12.36;90.33
76406;BME280;65234;50.044;19.258;2023-03-20T11:15:54;98778.72;;;12.39;90.14
76406;BME280;65234;50.044;19.258;2023-03-20T11:18:23;98781.13;;;12.37;89.57
76406;BME280;65234;50.044;19.258;2023-03-20T11:20:51;98774.47;;;12.27;89.53
76406;BME280;65234;50.044;19.258;2023-03-20T11:23:19;98762.41;;;12.45;89.41
76406;BME280;65234;50.044;19.258;2023-03-20T11:25:52;98768.75;;;12.45;89.28
76406;BME280;65234;50.044;19.258;2023-03-20T11:28:30;98773.81;;;12.57;88.94
76406;BME280;65234;50.044;19.258;2023-03-20T11:30:58;98762.94;;;12.73;89.22
76406;BME280;65234;50.044;19.258;2023-03-20T11:33:25;98760.47;;;12.83;87.25
76406;BME280;65234;50.044;19.258;2023-03-20T11:35:54;98758.06;;;12.85;87.33
76406;BME280;65234;50.044;19.258;2023-03-20T11:38:21;98760.44;;;12.86;87.40
76406;BME280;65234;50.044;19.258;2023-03-20T11:40:47;98764.66;;;12.98;86.88
76406;BME280;65234;50.044;19.258;2023-03-20T11:43:19;98759.78;;;13.09;86.94
76406;BME280;65234;50.044;19.258;2023-03-20T11:45:48;98759.91;;;12.98;85.92
76406;BME280;65234;50.044;19.258;2023-03-20T11:48:17;98753.28;;;12.85;86.31
76406;BME280;65234;50.044;19.258;2023-03-20T11:50:46;98750.63;;;12.74;86.78
76406;BME280;65234;50.044;19.258;2023-03-20T11:53:20;98754.19;;;12.75;87.29
76406;BME280;65234;50.044;19.258;2023-03-20T11:55:59;98747.81;;;12.78;87.13
76406;BME280;65234;50.044;19.258;2023-03-20T11:58:26;98752.25;;;12.68;87.18
76406;BME280;65234;50.044;19.258;2023-03-20T12:00:54;98759.06;;;12.64;87.97
76406;BME280;65234;50.044;19.258;2023-03-20T12:03:36;98745.06;;;12.74;87.94
76406;BME280;65234;50.044;19.258;2023-03-20T12:06:05;98757.81;;;12.72;87.37
76406;BME280;65234;50.044;19.258;2023-03-20T12:08:35;98747.84;;;12.74;87.08
76406;BME280;65234;50.044;19.258;2023-03-20T12:11:10;98748.28;;;12.69;86.95
76406;BME280;65234;50.044;19.258;2023-03-20T12:13:40;98742.72;;;12.69;87.11
76406;BME280;65234;50.044;19.258;2023-03-20T12:16:12;98741.53;;;12.70;87.56
76406;BME280;65234;50.044;19.258;2023-03-20T12:18:42;98729.94;;;12.79;86.89
76406;BME280;65234;50.044;19.258;2023-03-20T12:21:12;98727.78;;;12.94;87.07
76406;BME280;65234;50.044;19.258;2023-03-20T12:23:42;98731.00;;;13.26;87.80
76406;BME280;65234;50.044;19.258;2023-03-20T12:26:11;98730.88;;;13.37;84.16
76406;BME280;65234;50.044;19.258;2023-03-20T12:28:43;98725.09;;;13.54;83.99
76406;BME280;65234;50.044;19.258;2023-03-20T12:31:18;98724.66;;;13.83;83.00
76406;BME280;65234;50.044;19.258;2023-03-20T12:33:51;98725.91;;;14.05;83.58
76406;BME280;65234;50.044;19.258;2023-03-20T12:36:24;98723.53;;;14.03;81.10
76406;BME280;65234;50.044;19.258;2023-03-20T12:38:54;98724.63;;;13.86;81.31
76406;BME280;65234;50.044;19.258;2023-03-20T12:41:23;98719.25;;;13.72;80.97
76406;BME280;65234;50.044;19.258;2023-03-20T12:46:46;98706.53;;;13.98;81.01
76406;BME280;65234;50.044;19.258;2023-03-20T12:49:25;98710.63;;;14.16;79.79
76406;BME280;65234;50.044;19.258;2023-03-20T12:52:01;98707.06;;;14.39;79.33
76406;BME280;65234;50.044;19.258;2023-03-20T12:54:41;98705.44;;;14.42;76.27
76406;BME280;65234;50.044;19.258;2023-03-20T12:57:17;98703.75;;;14.48;77.97
76406;BME280;65234;50.044;19.258;2023-03-20T12:59:57;98698.38;;;14.37;76.29
76406;BME280;65234;50.044;19.258;2023-03-20T13:02:33;98704.06;;;14.53;76.10
76406;BME280;65234;50.044;19.258;2023-03-20T13:05:15;98701.56;;;14.79;77.09
76406;BME280;65234;50.044;19.258;2023-03-20T13:07:56;98698.00;;;14.78;76.17
76406;BME280;65234;50.044;19.258;2023-03-20T13:10:28;98691.38;;;14.92;75.14
76406;BME280;65234;50.044;19.258;2023-03-20T13:13:05;98700.53;;;14.92;73.81
76406;BME280;65234;50.044;19.258;2023-03-20T13:15:47;98696.72;;;14.83;72.25